Time;durP1;ratioP1;P1;durP2;ratioP2;P2;SDS_P1;SDS_P2;PMS_P1;PMS_P2;Temp;Humidity;BMP_temperature;BMP_pressure;BME280_temperature;BME280_humidity;BME280_pressure;Samples;Min_cycle;Max_cycle;Signal;HPM_P1;HPM_P2
2022/11/17 00:01:07;;;;;;;7.17;2.70;;;12.40;99.90;;;;;;5095251;28;20523;-67
2022/11/17 00:03:34;;;;;;;5.53;2.60;;;12.40;99.90;;;;;;5095167;28;20468;-67
2022/11/17 00:06:03;;;;;;;5.20;2.40;;;12.40;99.90;;;;;;5094857;28;20444;-66
2022/11/17 00:08:30;;;;;;;9.00;2.97;;;12.40;99.90;;;;;;5097896;28;20466;-66
2022/11/17 00:14:35;;;;;;;5.87;3.60;;;12.40;99.90;;;;;;5093872;28;20819;-66
2022/11/17 00:17:04;;;;;;;6.73;4.63;;;12.40;99.90;;;;;;5094698;28;20917;-66
2022/11/17 00:22:14;;;;;;;9.80;4.90;;;12.30;99.90;;;;;;5094809;28;20972;-66
2022/11/17 00:24:41;;;;;;;6.50;2.60;;;12.30;99.90;;;;;;5094881;28;20457;-65
2022/11/17 00:27:08;;;;;;;4.23;2.17;;;12.30;99.90;;;;;;5094701;28;20424;-66
2022/11/17 00:30:00;;;;;;;7.03;2.20;;;12.20;99.90;;;;;;5094487;28;20443;-66
2022/11/17 00:35:11;;;;;;;6.07;2.97;;;12.20;99.90;;;;;;5094704;28;20775;-66
2022/11/17 00:38:14;;;;;;;6.13;2.20;;;12.20;99.90;;;;;;5076143;28;20452;-66
2022/11/17 00:40:27;;;;;;;5.23;2.63;;;12.30;99.90;;;;;;5094027;28;20436;-66
2022/11/17 00:42:54;;;;;;;7.30;2.40;;;12.20;99.90;;;;;;5094077;28;20836;-66
2022/11/17 00:45:22;;;;;;;3.40;2.37;;;12.20;99.90;;;;;;5094386;28;20458;-66
2022/11/17 00:47:49;;;;;;;3.63;2.00;;;12.30;99.90;;;;;;5094398;28;20447;-66
2022/11/17 00:50:15;;;;;;;6.90;1.90;;;12.20;99.90;;;;;;5093912;28;20830;-66
2022/11/17 00:52:43;;;;;;;6.23;2.40;;;12.20;99.90;;;;;;5094761;28;20471;-66
2022/11/17 00:55:10;;;;;;;4.97;2.00;;;12.20;99.90;;;;;;5094517;28;20445;-65
2022/11/17 00:57:37;;;;;;;5.00;2.10;;;12.20;99.90;;;;;;5094346;28;20446;-65
2022/11/17 01:00:04;;;;;;;4.13;2.10;;;12.20;99.90;;;;;;5093621;28;20484;-65
2022/11/17 01:02:32;;;;;;;4.33;1.67;;;12.20;99.90;;;;;;5093885;28;20477;-65
2022/11/17 01:04:59;;;;;;;5.33;1.97;;;12.20;99.90;;;;;;5093555;28;20454;-65
2022/11/17 01:07:26;;;;;;;1.97;1.70;;;12.20;99.90;;;;;;5093593;28;20951;-65
2022/11/17 01:09:52;;;;;;;6.07;2.13;;;12.20;99.90;;;;;;5093695;28;20951;-66
2022/11/17 01:12:19;;;;;;;2.90;1.57;;;12.20;99.90;;;;;;5093915;28;20468;-66
2022/11/17 01:14:47;;;;;;;3.43;1.60;;;12.10;99.90;;;;;;5094086;28;20801;-66
2022/11/17 01:17:13;;;;;;;4.07;1.90;;;12.20;99.90;;;;;;5093885;28;20448;-66
2022/11/17 01:19:41;;;;;;;5.03;2.67;;;12.10;99.90;;;;;;5093757;28;20479;-67
2022/11/17 01:22:08;;;;;;;4.20;1.53;;;12.20;99.90;;;;;;5093770;28;20479;-66
2022/11/17 01:24:35;;;;;;;6.10;1.80;;;12.20;99.90;;;;;;5093631;28;20439;-66
2022/11/17 01:27:01;;;;;;;4.57;1.70;;;12.20;99.90;;;;;;5093360;28;20814;-66
2022/11/17 01:29:28;;;;;;;4.23;1.40;;;12.10;99.90;;;;;;5093783;28;20442;-67
2022/11/17 01:31:55;;;;;;;3.50;1.70;;;12.10;99.90;;;;;;5093628;28;20454;-67
2022/11/17 01:34:22;;;;;;;5.47;1.90;;;12.10;99.90;;;;;;5093584;28;20448;-67
2022/11/17 01:39:34;;;;;;;4.13;1.17;;;12.10;99.90;;;;;;5093470;28;20485;-67
2022/11/17 01:42:03;;;;;;;2.33;1.60;;;12.10;99.90;;;;;;5094323;28;20446;-67
2022/11/17 01:44:59;;;;;;;2.07;1.10;;;12.10;99.90;;;;;;5094770;28;20450;-67
2022/11/17 01:47:34;;;;;;;4.53;1.47;;;12.00;99.90;;;;;;5094243;28;20806;-66
2022/11/17 01:50:06;;;;;;;2.67;1.40;;;12.10;99.90;;;;;;5093719;28;20431;-66
2022/11/17 01:52:37;;;;;;;3.63;1.50;;;12.00;99.90;;;;;;5093249;28;20468;-67
2022/11/17 01:55:06;;;;;;;4.70;1.63;;;12.00;99.90;;;;;;5093465;28;20429;-67
2022/11/17 01:57:38;;;;;;;3.57;1.70;;;12.00;99.90;;;;;;5093464;28;20522;-67
2022/11/17 02:00:07;;;;;;;2.00;1.20;;;12.00;99.90;;;;;;5093393;28;20495;-67
2022/11/17 02:02:34;;;;;;;1.47;1.30;;;12.00;99.90;;;;;;5093456;28;20517;-67
2022/11/17 02:05:10;;;;;;;2.70;1.27;;;12.00;99.90;;;;;;5093357;28;20450;-67
2022/11/17 02:07:40;;;;;;;2.67;1.50;;;12.00;99.90;;;;;;5093110;28;20810;-67
2022/11/17 02:10:07;;;;;;;3.50;1.33;;;12.00;99.90;;;;;;5093416;28;20440;-67
2022/11/17 02:12:36;;;;;;;3.27;1.60;;;12.10;99.90;;;;;;5093297;28;20468;-67
2022/11/17 02:15:04;;;;;;;4.37;1.40;;;12.10;99.90;;;;;;5093308;28;20445;-67
2022/11/17 02:17:36;;;;;;;4.13;1.77;;;12.10;99.90;;;;;;5095619;28;20821;-67
2022/11/17 02:20:07;;;;;;;4.77;1.60;;;12.10;99.90;;;;;;5097222;28;20466;-67
2022/11/17 02:23:02;;;;;;;1.33;0.90;;;12.10;99.90;;;;;;5096891;28;21013;-67
2022/11/17 02:25:43;;;;;;;2.40;1.73;;;12.10;99.90;;;;;;5097358;28;20441;-66
2022/11/17 02:28:16;;;;;;;2.00;1.43;;;12.20;99.90;;;;;;5100648;28;20911;-66
2022/11/17 02:30:52;;;;;;;1.90;1.30;;;12.10;99.90;;;;;;5097077;28;20438;-66
2022/11/17 02:33:30;;;;;;;2.10;1.40;;;12.10;99.90;;;;;;5096752;28;20479;-66
2022/11/17 02:36:04;;;;;;;3.03;1.70;;;12.20;99.90;;;;;;5096958;28;20499;-66
2022/11/17 02:38:39;;;;;;;6.00;1.40;;;12.20;99.90;;;;;;5096873;28;20436;-66
2022/11/17 02:41:12;;;;;;;2.30;1.13;;;12.10;99.90;;;;;;5097152;28;20787;-66
2022/11/17 02:46:33;;;;;;;3.50;1.50;;;12.10;99.90;;;;;;5096734;28;20542;-66
2022/11/17 02:49:03;;;;;;;3.67;1.30;;;12.20;99.90;;;;;;5096973;28;20834;-65
2022/11/17 02:51:32;;;;;;;2.07;1.03;;;12.20;99.90;;;;;;5099261;28;20439;-65
2022/11/17 02:54:00;;;;;;;2.10;1.20;;;12.20;99.90;;;;;;5096480;28;20474;-66
2022/11/17 02:56:27;;;;;;;3.00;1.30;;;12.20;99.90;;;;;;5096185;28;20446;-66
2022/11/17 02:59:02;;;;;;;2.30;1.07;;;12.20;99.90;;;;;;5096299;28;20479;-67
2022/11/17 03:02:04;;;;;;;3.33;1.60;;;12.20;99.90;;;;;;5096582;28;20430;-65
2022/11/17 03:04:39;;;;;;;3.03;1.90;;;12.20;99.90;;;;;;5096494;28;20426;-65
2022/11/17 03:07:17;;;;;;;5.00;1.50;;;12.20;99.90;;;;;;5096403;28;20428;-66
2022/11/17 03:09:49;;;;;;;2.93;1.47;;;12.20;99.90;;;;;;5096293;28;20420;-67
2022/11/17 03:12:22;;;;;;;2.67;1.23;;;12.20;99.90;;;;;;5096177;28;20494;-67
2022/11/17 03:14:58;;;;;;;3.87;1.40;;;12.20;99.90;;;;;;5096225;28;20454;-67
2022/11/17 03:17:30;;;;;;;2.80;1.67;;;12.20;99.90;;;;;;5096082;28;20431;-67
2022/11/17 03:20:02;;;;;;;2.23;1.00;;;12.20;99.90;;;;;;5095756;28;20474;-67
2022/11/17 03:22:36;;;;;;;1.60;1.03;;;12.20;99.90;;;;;;5096248;28;20475;-67
2022/11/17 03:25:06;;;;;;;2.43;1.70;;;12.20;99.90;;;;;;5096135;28;20787;-67
2022/11/17 03:27:37;;;;;;;1.90;1.13;;;12.20;99.90;;;;;;5095671;28;20948;-67
2022/11/17 03:30:08;;;;;;;3.60;1.27;;;12.20;99.90;;;;;;5095032;28;20953;-67
2022/11/17 03:32:38;;;;;;;3.07;1.13;;;12.20;99.90;;;;;;5095911;28;20463;-67
2022/11/17 03:35:09;;;;;;;2.53;1.20;;;12.20;99.90;;;;;;5096164;28;20448;-67
2022/11/17 03:37:39;;;;;;;5.90;1.30;;;12.10;99.90;;;;;;5095503;28;20642;-67
2022/11/17 03:40:09;;;;;;;1.60;1.40;;;12.20;99.90;;;;;;5095864;28;20582;-67
2022/11/17 03:42:40;;;;;;;2.60;1.40;;;12.20;99.90;;;;;;5095626;28;20464;-67
2022/11/17 03:45:14;;;;;;;4.53;1.20;;;12.20;99.90;;;;;;5095742;28;20439;-67
2022/11/17 03:47:43;;;;;;;2.90;1.20;;;12.30;99.90;;;;;;5095664;28;20442;-67
2022/11/17 03:50:14;;;;;;;2.00;1.20;;;12.20;99.90;;;;;;5096022;28;20444;-67
2022/11/17 03:52:42;;;;;;;2.83;1.13;;;12.20;99.90;;;;;;5095530;28;20471;-67
2022/11/17 03:55:10;;;;;;;1.30;1.20;;;12.20;99.90;;;;;;5095531;28;20450;-67
2022/11/17 03:57:44;;;;;;;3.63;1.53;;;12.20;99.90;;;;;;5095381;28;20448;-67
2022/11/17 04:00:15;;;;;;;4.00;1.33;;;12.20;99.90;;;;;;5094996;28;20842;-67
2022/11/17 04:02:43;;;;;;;2.17;1.17;;;12.20;99.90;;;;;;5095411;28;20463;-67
2022/11/17 04:05:10;;;;;;;3.30;1.30;;;12.20;99.90;;;;;;5095220;28;20509;-68
2022/11/17 04:07:40;;;;;;;3.30;1.20;;;12.20;99.90;;;;;;5095156;28;20451;-67
2022/11/17 04:10:08;;;;;;;2.90;1.43;;;12.20;99.90;;;;;;5095018;28;20431;-67
2022/11/17 04:18:07;;;;;;;2.97;1.33;;;12.20;99.90;;;;;;5079630;28;20410;-67
2022/11/17 04:20:35;;;;;;;2.10;0.90;;;12.20;99.90;;;;;;5095176;28;20482;-67
2022/11/17 04:23:08;;;;;;;2.17;1.37;;;12.20;99.90;;;;;;5095301;28;20464;-67
2022/11/17 04:28:39;;;;;;;2.73;1.50;;;12.30;99.90;;;;;;5095943;28;20493;-68
2022/11/17 04:31:12;;;;;;;2.50;1.23;;;12.30;99.90;;;;;;5094777;28;20930;-68
2022/11/17 04:33:40;;;;;;;4.57;0.90;;;12.30;99.90;;;;;;5094656;28;20990;-67
2022/11/17 04:36:08;;;;;;;4.00;1.20;;;12.30;99.90;;;;;;5094542;28;20928;-67
2022/11/17 04:38:35;;;;;;;5.80;1.33;;;12.30;99.90;;;;;;5094717;28;20432;-68
2022/11/17 04:43:50;;;;;;;3.97;0.87;;;12.30;99.90;;;;;;5094714;28;20434;-67
2022/11/17 04:46:20;;;;;;;1.47;0.80;;;12.30;99.90;;;;;;5094643;28;20452;-67
2022/11/17 04:48:47;;;;;;;7.40;0.93;;;12.30;99.90;;;;;;5094293;28;20446;-66
2022/11/17 04:51:15;;;;;;;4.53;0.93;;;12.20;99.90;;;;;;5094477;28;20443;-66
2022/11/17 04:53:42;;;;;;;4.90;1.20;;;12.30;99.90;;;;;;5094409;28;20838;-66
2022/11/17 04:56:09;;;;;;;4.23;1.77;;;12.20;99.90;;;;;;5094814;28;20451;-65
2022/11/17 04:58:36;;;;;;;5.70;1.30;;;12.30;99.90;;;;;;5095837;28;21020;-66
2022/11/17 05:01:13;;;;;;;1.93;1.10;;;12.30;99.90;;;;;;5100840;28;20479;-65
2022/11/17 05:03:45;;;;;;;5.80;1.17;;;12.20;99.90;;;;;;5104991;28;20521;-66
2022/11/17 05:06:14;;;;;;;4.93;1.27;;;12.20;99.90;;;;;;5109350;28;20428;-66
2022/11/17 05:08:41;;;;;;;2.67;0.83;;;12.30;99.90;;;;;;5111467;28;20515;-65
2022/11/17 05:13:54;;;;;;;2.50;1.30;;;12.30;99.90;;;;;;5106588;28;20505;-65
2022/11/17 05:19:10;;;;;;;3.93;1.70;;;12.30;99.90;;;;;;5096520;28;20412;-65
2022/11/17 05:21:36;;;;;;;1.67;1.40;;;12.30;99.90;;;;;;5094225;28;20440;-65
2022/11/17 05:24:03;;;;;;;4.10;1.53;;;12.30;99.90;;;;;;5093906;28;20459;-65
2022/11/17 05:26:31;;;;;;;1.60;1.00;;;12.20;99.90;;;;;;5093592;28;20831;-66
2022/11/17 05:29:00;;;;;;;1.60;1.20;;;12.20;99.90;;;;;;5094047;28;20439;-65
2022/11/17 05:31:27;;;;;;;2.23;1.30;;;12.20;99.90;;;;;;5093816;28;20443;-65
2022/11/17 05:33:54;;;;;;;2.57;2.30;;;12.20;99.90;;;;;;5094662;28;20478;-65
2022/11/17 05:36:24;;;;;;;1.47;0.97;;;12.20;99.90;;;;;;5093643;28;20462;-65
2022/11/17 05:38:51;;;;;;;3.60;1.33;;;12.20;99.90;;;;;;5093675;28;20792;-66
2022/11/17 05:41:19;;;;;;;2.23;1.60;;;12.20;99.90;;;;;;5094050;28;20500;-67
2022/11/17 05:43:46;;;;;;;3.80;1.20;;;12.20;99.90;;;;;;5093550;28;20464;-66
2022/11/17 05:46:13;;;;;;;3.63;1.10;;;12.20;99.90;;;;;;5093997;28;20434;-66
2022/11/17 05:48:40;;;;;;;4.53;1.50;;;12.20;99.90;;;;;;5093623;28;20447;-66
2022/11/17 05:51:07;;;;;;;5.47;1.77;;;12.20;99.90;;;;;;5094710;28;20807;-66
2022/11/17 05:53:35;;;;;;;1.70;1.30;;;12.20;99.90;;;;;;5100440;28;20478;-66
2022/11/17 05:56:13;;;;;;;7.07;1.83;;;12.20;99.90;;;;;;5100607;28;20502;-67
2022/11/17 05:58:43;;;;;;;1.33;1.20;;;12.20;99.90;;;;;;5100550;28;20427;-67
2022/11/17 06:01:11;;;;;;;3.70;1.30;;;12.20;99.90;;;;;;5102318;28;20487;-66
2022/11/17 06:03:42;;;;;;;3.30;1.20;;;12.20;99.90;;;;;;5099984;28;20994;-67
2022/11/17 06:06:10;;;;;;;3.90;1.20;;;12.20;99.90;;;;;;5099977;28;20432;-67
2022/11/17 06:08:38;;;;;;;3.87;1.37;;;12.20;99.90;;;;;;5100260;28;20451;-67
2022/11/17 06:11:05;;;;;;;4.93;1.13;;;12.20;99.90;;;;;;5100444;28;20466;-67
2022/11/17 06:13:31;;;;;;;2.20;1.10;;;12.20;99.90;;;;;;5100008;28;20468;-67
2022/11/17 06:16:02;;;;;;;2.53;0.77;;;12.20;99.90;;;;;;5100027;28;20447;-67
2022/11/17 06:18:32;;;;;;;1.57;0.63;;;12.20;99.90;;;;;;5100093;28;20439;-67
2022/11/17 06:20:59;;;;;;;4.87;1.57;;;12.20;99.90;;;;;;5099643;28;20490;-67
2022/11/17 06:23:28;;;;;;;2.13;1.13;;;12.20;99.90;;;;;;5100172;28;20483;-67
2022/11/17 06:25:58;;;;;;;3.47;1.00;;;12.20;99.90;;;;;;5100267;28;20475;-67
2022/11/17 06:28:29;;;;;;;1.53;1.10;;;12.20;99.90;;;;;;5100095;28;20451;-68
2022/11/17 06:30:56;;;;;;;2.10;1.20;;;12.20;99.90;;;;;;5100191;28;20518;-67
2022/11/17 06:33:24;;;;;;;4.90;2.03;;;12.20;99.90;;;;;;5100130;28;20467;-67
2022/11/17 06:35:52;;;;;;;2.60;0.80;;;12.20;99.90;;;;;;5100083;28;20483;-67
2022/11/17 06:38:19;;;;;;;6.00;1.10;;;12.30;99.90;;;;;;5100069;28;20435;-68
2022/11/17 06:40:46;;;;;;;2.70;1.37;;;12.20;99.90;;;;;;5099976;28;20479;-67
2022/11/17 06:43:15;;;;;;;5.03;1.27;;;12.30;99.90;;;;;;5099982;28;20542;-67
2022/11/17 06:45:43;;;;;;;2.90;1.13;;;12.30;99.90;;;;;;5100041;28;20839;-67
2022/11/17 06:48:12;;;;;;;1.03;0.93;;;12.20;99.90;;;;;;5099791;28;20452;-67
2022/11/17 06:50:39;;;;;;;2.33;1.00;;;12.20;99.90;;;;;;5099659;28;20443;-67
2022/11/17 06:53:08;;;;;;;1.63;1.00;;;12.20;99.90;;;;;;5100174;28;20470;-67
2022/11/17 06:55:35;;;;;;;3.53;1.03;;;12.20;99.90;;;;;;5099960;28;20440;-67
2022/11/17 06:58:03;;;;;;;2.50;1.07;;;12.20;99.90;;;;;;5100012;28;20432;-68
2022/11/17 07:00:33;;;;;;;2.60;1.17;;;12.20;99.90;;;;;;5099683;28;20483;-66
2022/11/17 07:03:00;;;;;;;2.80;1.50;;;12.20;99.90;;;;;;5097893;28;20460;-66
2022/11/17 07:05:27;;;;;;;1.57;1.10;;;12.20;99.90;;;;;;5096518;28;20504;-67
2022/11/17 07:07:57;;;;;;;2.67;1.07;;;12.20;99.90;;;;;;5096738;28;20451;-64
2022/11/17 07:10:23;;;;;;;1.70;0.93;;;12.30;99.90;;;;;;5098588;28;20455;-66
2022/11/17 07:12:50;;;;;;;3.33;0.80;;;12.30;99.90;;;;;;5098274;28;20464;-65
2022/11/17 07:15:17;;;;;;;1.97;0.60;;;12.20;99.90;;;;;;5096756;28;20440;-64
2022/11/17 07:17:45;;;;;;;1.93;0.60;;;12.10;99.90;;;;;;5084784;28;20457;-65
2022/11/17 07:20:12;;;;;;;2.67;0.60;;;12.00;99.90;;;;;;5075082;28;20483;-66
2022/11/17 07:22:40;;;;;;;2.00;0.47;;;11.90;99.90;;;;;;5076115;28;20470;-66
2022/11/17 07:25:07;;;;;;;2.40;0.60;;;11.70;99.90;;;;;;5075911;28;20457;-66
2022/11/17 07:27:34;;;;;;;1.80;0.70;;;11.70;99.90;;;;;;5076320;28;20443;-65
2022/11/17 07:30:01;;;;;;;2.43;1.57;;;11.50;99.90;;;;;;5075740;28;20449;-64
2022/11/17 07:32:28;;;;;;;2.17;0.77;;;11.60;99.90;;;;;;5075966;28;20490;-65
2022/11/17 07:34:58;;;;;;;3.57;0.70;;;11.60;99.90;;;;;;5076035;28;20489;-65
2022/11/17 07:37:25;;;;;;;2.00;0.80;;;11.60;99.90;;;;;;5075730;28;20497;-66
2022/11/17 07:39:52;;;;;;;2.30;0.70;;;11.70;99.90;;;;;;5075495;28;20452;-66
2022/11/17 07:42:19;;;;;;;2.30;0.77;;;11.70;99.90;;;;;;5076099;28;20477;-66
2022/11/17 07:44:47;;;;;;;1.70;0.90;;;11.80;99.90;;;;;;5075374;28;20449;-66
2022/11/17 07:47:13;;;;;;;3.20;0.80;;;11.80;99.90;;;;;;5075622;28;20435;-67
2022/11/17 07:49:40;;;;;;;1.33;0.67;;;11.90;99.90;;;;;;5075763;28;20440;-67
2022/11/17 07:52:08;;;;;;;1.00;0.60;;;11.90;99.90;;;;;;5075353;28;20468;-67
2022/11/17 07:54:35;;;;;;;1.80;0.77;;;12.00;99.90;;;;;;5076380;28;20448;-66
2022/11/17 07:57:01;;;;;;;3.13;1.00;;;12.00;99.90;;;;;;5076657;28;20429;-67
2022/11/17 07:59:28;;;;;;;1.90;1.20;;;12.10;99.90;;;;;;5075307;28;20452;-67
2022/11/17 08:01:55;;;;;;;1.37;0.80;;;12.10;99.90;;;;;;5074823;28;20836;-67
2022/11/17 08:04:22;;;;;;;4.50;0.80;;;12.10;99.90;;;;;;5075830;28;20448;-66
2022/11/17 08:06:48;;;;;;;3.50;1.00;;;12.10;99.90;;;;;;5075473;28;20449;-65
2022/11/17 08:09:17;;;;;;;2.07;0.63;;;12.10;99.90;;;;;;5075159;28;20449;-67
2022/11/17 08:11:43;;;;;;;2.00;1.17;;;12.20;99.90;;;;;;5074525;28;20451;-66
2022/11/17 08:14:10;;;;;;;1.87;0.93;;;12.20;99.90;;;;;;5074857;28;20448;-66
2022/11/17 08:16:37;;;;;;;2.00;0.90;;;12.10;99.90;;;;;;5076734;28;20452;-65
2022/11/17 08:19:05;;;;;;;2.80;0.57;;;12.10;99.90;;;;;;5077785;28;20940;-67
2022/11/17 08:21:31;;;;;;;3.80;0.60;;;12.10;99.90;;;;;;5075190;28;20488;-67
2022/11/17 08:23:59;;;;;;;2.03;0.73;;;12.20;99.60;;;;;;5074934;28;20471;-67
2022/11/17 08:26:27;;;;;;;5.13;0.93;;;12.30;99.50;;;;;;5075003;28;20456;-67
2022/11/17 08:28:53;;;;;;;1.43;0.60;;;12.30;99.40;;;;;;5074861;28;20438;-67
2022/11/17 08:31:20;;;;;;;4.20;0.73;;;12.30;99.50;;;;;;5074885;28;20899;-66
2022/11/17 08:33:47;;;;;;;3.60;0.80;;;12.40;99.50;;;;;;5074655;28;20469;-67
2022/11/17 08:36:13;;;;;;;4.03;0.97;;;12.50;99.40;;;;;;5074554;28;20467;-67
2022/11/17 08:38:40;;;;;;;1.40;0.70;;;12.60;99.30;;;;;;5074997;28;20456;-67
2022/11/17 08:41:08;;;;;;;5.13;1.27;;;12.70;98.80;;;;;;5074777;28;20491;-67
2022/11/17 08:43:36;;;;;;;3.03;0.90;;;12.80;98.40;;;;;;5074387;28;20465;-67
2022/11/17 08:46:03;;;;;;;7.00;1.33;;;12.90;98.00;;;;;;5075019;28;20452;-67
2022/11/17 08:48:30;;;;;;;2.10;1.30;;;12.90;97.50;;;;;;5074758;28;20443;-67
2022/11/17 08:50:57;;;;;;;1.37;1.17;;;13.00;97.40;;;;;;5074904;28;20431;-67
2022/11/17 08:53:24;;;;;;;2.50;1.03;;;12.90;97.40;;;;;;5074731;28;20465;-67
2022/11/17 08:55:57;;;;;;;3.23;1.20;;;13.00;97.50;;;;;;5074411;28;20831;-67
2022/11/17 08:58:23;;;;;;;4.37;1.37;;;12.90;97.20;;;;;;5074911;28;20907;-67
2022/11/17 09:00:51;;;;;;;3.87;1.30;;;12.90;97.20;;;;;;5074416;28;20467;-68
2022/11/17 09:03:18;;;;;;;1.80;1.07;;;13.00;97.50;;;;;;5074522;28;20987;-67
2022/11/17 09:05:47;;;;;;;3.73;1.27;;;13.00;97.20;;;;;;5074302;28;20452;-67
2022/11/17 09:08:13;;;;;;;1.90;1.00;;;12.90;96.50;;;;;;5074080;28;20488;-67
2022/11/17 09:10:41;;;;;;;2.57;0.90;;;12.90;96.80;;;;;;5074278;28;20928;-67
2022/11/17 09:13:07;;;;;;;1.27;0.70;;;12.90;96.50;;;;;;5074719;28;20468;-67
2022/11/17 09:15:34;;;;;;;2.17;0.80;;;12.90;96.70;;;;;;5074017;28;20908;-67
2022/11/17 09:18:02;;;;;;;2.43;0.70;;;12.90;96.50;;;;;;5074933;28;20453;-67
2022/11/17 09:20:30;;;;;;;1.40;0.60;;;13.00;96.40;;;;;;5075277;28;20468;-67
2022/11/17 09:23:00;;;;;;;1.60;0.57;;;12.90;95.90;;;;;;5074858;28;20472;-67
2022/11/17 09:25:26;;;;;;;3.00;0.80;;;12.90;95.60;;;;;;5074521;28;20494;-66
2022/11/17 09:27:53;;;;;;;4.13;0.63;;;13.00;95.70;;;;;;5074004;28;20428;-66
2022/11/17 09:30:21;;;;;;;7.03;0.90;;;13.00;95.50;;;;;;5074812;28;20445;-66
2022/11/17 09:32:48;;;;;;;1.73;0.70;;;13.10;95.60;;;;;;5077482;28;20465;-67
2022/11/17 09:35:16;;;;;;;2.97;0.80;;;13.10;94.80;;;;;;5076601;28;20885;-67
2022/11/17 09:37:43;;;;;;;2.57;0.80;;;13.20;94.20;;;;;;5076076;28;20466;-67
2022/11/17 09:40:15;;;;;;;1.40;0.80;;;13.20;93.70;;;;;;5076703;28;20462;-67
2022/11/17 09:42:42;;;;;;;1.33;0.60;;;13.20;93.90;;;;;;5077710;28;20453;-67
2022/11/17 09:45:15;;;;;;;2.70;0.97;;;13.30;93.10;;;;;;5080282;28;20448;-67
2022/11/17 09:47:47;;;;;;;1.13;0.53;;;13.30;92.50;;;;;;5076759;28;20433;-67
2022/11/17 09:50:22;;;;;;;5.30;0.90;;;13.30;92.40;;;;;;5080881;28;20437;-67
2022/11/17 09:52:56;;;;;;;1.57;0.90;;;13.30;91.60;;;;;;5083042;28;20479;-66
2022/11/17 09:55:29;;;;;;;2.60;0.60;;;13.30;91.20;;;;;;5082628;28;20425;-67
2022/11/17 09:58:03;;;;;;;1.57;0.47;;;13.40;91.50;;;;;;5081305;28;20445;-67
2022/11/17 10:00:33;;;;;;;3.67;0.60;;;13.40;91.60;;;;;;5080512;28;20436;-66
2022/11/17 10:03:01;;;;;;;2.20;0.90;;;13.40;91.60;;;;;;5080060;28;20461;-66
2022/11/17 10:05:31;;;;;;;1.73;0.70;;;13.40;91.10;;;;;;5079362;28;20459;-67
2022/11/17 10:08:03;;;;;;;1.40;0.60;;;13.40;91.00;;;;;;5079105;28;20433;-67
2022/11/17 10:10:39;;;;;;;1.63;0.43;;;13.40;90.70;;;;;;5079366;28;20489;-67
2022/11/17 10:13:16;;;;;;;3.63;0.63;;;13.50;91.00;;;;;;5079290;28;20474;-67
2022/11/17 10:15:47;;;;;;;1.90;0.67;;;13.60;91.00;;;;;;5078883;28;20803;-67
2022/11/17 10:18:15;;;;;;;1.57;0.40;;;13.60;90.80;;;;;;5079552;28;20427;-67
2022/11/17 10:20:44;;;;;;;1.90;0.87;;;13.60;90.20;;;;;;5079677;28;20978;-67
2022/11/17 10:23:14;;;;;;;1.73;0.80;;;13.60;89.80;;;;;;5080137;28;20830;-67
2022/11/17 10:25:42;;;;;;;4.57;0.80;;;13.70;90.60;;;;;;5077830;28;20837;-67
2022/11/17 10:28:23;;;;;;;4.27;0.90;;;13.70;90.10;;;;;;5078923;28;20955;-68
2022/11/17 10:30:54;;;;;;;2.40;0.63;;;13.70;89.00;;;;;;5078244;28;20429;-67
2022/11/17 10:33:33;;;;;;;2.13;0.80;;;13.70;89.10;;;;;;5078304;28;20497;-67
2022/11/17 10:36:02;;;;;;;1.33;0.50;;;13.70;90.20;;;;;;5086731;28;20487;-66
2022/11/17 10:38:32;;;;;;;4.20;0.67;;;13.70;90.40;;;;;;5097511;28;20420;-67
2022/11/17 10:41:02;;;;;;;2.30;0.57;;;13.70;89.60;;;;;;5093742;28;20524;-68
2022/11/17 10:43:32;;;;;;;1.70;0.63;;;13.70;89.40;;;;;;5085089;28;20983;-67
2022/11/17 10:46:02;;;;;;;0.90;0.53;;;13.70;89.10;;;;;;5084365;28;20433;-67
2022/11/17 10:48:31;;;;;;;2.70;0.80;;;13.70;90.00;;;;;;5085653;28;20445;-67
2022/11/17 10:51:01;;;;;;;4.80;0.73;;;13.80;89.80;;;;;;5087269;28;20428;-68
2022/11/17 10:53:35;;;;;;;4.30;0.60;;;13.80;88.50;;;;;;5083761;28;20468;-68
2022/11/17 10:56:05;;;;;;;1.90;1.17;;;13.80;88.90;;;;;;5093376;28;20423;-67
2022/11/17 10:58:50;;;;;;;6.50;2.53;;;13.80;88.80;;;;;;5101961;28;20432;-70
2022/11/17 11:01:28;;;;;;;2.87;1.10;;;13.80;88.90;;;;;;5101940;28;20461;-68
2022/11/17 11:03:55;;;;;;;2.60;1.70;;;13.90;88.00;;;;;;5084539;28;20464;-68
2022/11/17 11:06:26;;;;;;;3.57;1.40;;;14.00;88.60;;;;;;5083504;28;20429;-68
2022/11/17 11:08:57;;;;;;;5.03;1.50;;;14.00;88.70;;;;;;5084554;28;20433;-68
2022/11/17 11:11:42;;;;;;;5.20;2.10;;;14.20;89.80;;;;;;5079295;28;20450;-68
2022/11/17 11:14:18;;;;;;;1.60;0.60;;;14.30;87.20;;;;;;5078341;28;20642;-68
2022/11/17 11:16:47;;;;;;;4.70;1.40;;;14.40;86.30;;;;;;5083760;28;20930;-68
2022/11/17 11:19:16;;;;;;;2.90;0.83;;;14.40;85.60;;;;;;5082848;28;20441;-68
2022/11/17 11:22:08;;;;;;;4.90;1.47;;;14.50;86.10;;;;;;5085976;28;20471;-68
2022/11/17 11:24:41;;;;;;;2.23;0.80;;;14.50;85.90;;;;;;5072516;28;20459;-68
2022/11/17 11:27:23;;;;;;;2.20;1.13;;;14.40;86.00;;;;;;5091167;28;20436;-68
2022/11/17 11:30:00;;;;;;;0.90;0.80;;;14.50;86.70;;;;;;5090297;28;20443;-68
2022/11/17 11:32:38;;;;;;;6.50;1.30;;;14.50;85.70;;;;;;5087623;28;20471;-68
2022/11/17 11:35:36;;;;;;;4.73;1.63;;;14.50;84.90;;;;;;5084628;28;20440;-68
2022/11/17 11:38:15;;;;;;;1.53;0.83;;;14.50;85.30;;;;;;5073085;28;20463;-68
2022/11/17 11:40:54;;;;;;;1.40;0.83;;;14.50;85.00;;;;;;5077343;28;20513;-68
2022/11/17 11:43:30;;;;;;;2.50;0.83;;;14.40;85.30;;;;;;5076137;28;20456;-68
2022/11/17 11:46:06;;;;;;;2.83;0.73;;;14.30;85.50;;;;;;5075581;28;20434;-68
2022/11/17 11:48:35;;;;;;;0.87;0.70;;;14.30;86.60;;;;;;5075509;28;20425;-68
2022/11/17 11:51:05;;;;;;;11.20;0.80;;;14.30;86.00;;;;;;5074884;28;20460;-68
2022/11/17 11:53:43;;;;;;;1.33;0.50;;;14.20;85.40;;;;;;5075469;28;20468;-68
2022/11/17 11:56:16;;;;;;;1.20;0.97;;;14.20;85.10;;;;;;5075466;28;20429;-68
2022/11/17 11:58:49;;;;;;;2.00;0.80;;;14.10;85.30;;;;;;5075309;28;20424;-68
2022/11/17 12:01:19;;;;;;;1.50;0.37;;;14.00;84.90;;;;;;5075250;28;20476;-68
2022/11/17 12:03:54;;;;;;;3.17;0.77;;;14.00;84.40;;;;;;5075214;28;20521;-68
2022/11/17 12:06:42;;;;;;;3.07;0.80;;;14.00;85.70;;;;;;5075272;28;20423;-68
2022/11/17 12:09:48;;;;;;;2.47;0.63;;;14.00;85.30;;;;;;5075106;28;20441;-68
2022/11/17 12:12:17;;;;;;;1.13;0.73;;;14.00;85.10;;;;;;5074947;28;20464;-68
2022/11/17 12:15:29;;;;;;;1.47;0.60;;;14.10;85.40;;;;;;5075021;28;20456;-68
2022/11/17 12:17:59;;;;;;;1.70;0.50;;;14.10;84.00;;;;;;5055415;28;20533;-68
2022/11/17 12:20:55;;;;;;;1.30;0.67;;;14.10;82.90;;;;;;5074529;28;20471;-68
2022/11/17 12:23:46;;;;;;;2.43;0.63;;;14.10;83.60;;;;;;5074805;28;20495;-68
2022/11/17 12:26:24;;;;;;;2.80;0.90;;;14.10;83.30;;;;;;5074896;28;20440;-68
2022/11/17 12:29:27;;;;;;;2.47;1.00;;;14.10;82.90;;;;;;5074805;28;20460;-67
2022/11/17 12:31:55;;;;;;;2.47;0.70;;;14.10;82.60;;;;;;5074714;28;20425;-68
2022/11/17 12:34:27;;;;;;;3.83;0.70;;;14.00;82.90;;;;;;5076615;28;20498;-68
2022/11/17 12:37:25;;;;;;;2.47;0.83;;;14.10;83.10;;;;;;5075080;28;20480;-68
2022/11/17 12:40:06;;;;;;;1.77;0.97;;;14.10;82.60;;;;;;5074685;28;20448;-68
2022/11/17 12:42:34;;;;;;;4.47;1.27;;;14.10;82.50;;;;;;5074688;28;20567;-68
2022/11/17 12:45:12;;;;;;;6.33;1.90;;;14.10;82.50;;;;;;5074279;28;20452;-68
2022/11/17 12:47:43;;;;;;;1.97;0.63;;;14.20;82.40;;;;;;5074108;28;21033;-67
2022/11/17 12:50:44;;;;;;;4.77;0.97;;;14.10;82.10;;;;;;5074408;28;20454;-68
2022/11/17 12:53:38;;;;;;;3.87;0.60;;;14.20;82.40;;;;;;5031318;28;20850;-68
2022/11/17 12:56:40;;;;;;;6.87;1.10;;;14.30;80.90;;;;;;5057289;28;20448;-68
2022/11/17 12:59:51;;;;;;;5.50;0.83;;;14.30;80.90;;;;;;5073490;28;20448;-68
2022/11/17 13:02:58;;;;;;;3.10;0.77;;;14.40;80.90;;;;;;5064449;28;20488;-68
2022/11/17 13:05:27;;;;;;;3.13;0.80;;;14.30;81.10;;;;;;5073952;28;20425;-67
2022/11/17 13:08:17;;;;;;;6.40;1.27;;;14.30;80.90;;;;;;5073795;28;20452;-68
2022/11/17 13:10:44;;;;;;;2.70;0.60;;;14.30;81.50;;;;;;5074011;28;20428;-67
2022/11/17 13:13:13;;;;;;;2.40;0.70;;;14.30;81.10;;;;;;5073964;28;20453;-67
2022/11/17 13:15:42;;;;;;;3.60;0.60;;;14.30;81.20;;;;;;5076116;28;20544;-68
2022/11/17 13:18:17;;;;;;;1.70;1.13;;;14.20;80.70;;;;;;5077863;28;20453;-67
2022/11/17 13:20:47;;;;;;;2.43;0.70;;;14.20;81.30;;;;;;5077753;28;20425;-68
2022/11/17 13:23:21;;;;;;;2.73;0.90;;;14.20;81.70;;;;;;5073527;28;20538;-68
2022/11/17 13:25:48;;;;;;;3.77;0.90;;;14.20;81.50;;;;;;5073722;28;20436;-67
2022/11/17 13:28:28;;;;;;;3.20;0.90;;;14.20;81.60;;;;;;5073680;28;20429;-68
2022/11/17 13:30:55;;;;;;;1.60;0.80;;;14.20;81.50;;;;;;5073676;28;20432;-68
2022/11/17 13:33:25;;;;;;;4.00;0.60;;;14.20;81.40;;;;;;5073580;28;20469;-68
2022/11/17 13:36:15;;;;;;;2.80;0.90;;;14.20;82.10;;;;;;5073277;28;20481;-68
2022/11/17 13:38:47;;;;;;;1.23;0.80;;;14.20;82.10;;;;;;5073861;28;20499;-68
2022/11/17 13:41:15;;;;;;;1.80;1.03;;;14.30;82.80;;;;;;5073554;28;20444;-67